sensor_id;sensor_type;location;lat;lon;timestamp;P1;durP1;ratioP1;P2;durP2;ratioP2
10005;SDS011;5042;42.626;23.382;2023-04-03T00:01:25;1.53;;;1.43;;
10005;SDS011;5042;42.626;23.382;2023-04-03T00:03:51;1.67;;;1.57;;
10005;SDS011;5042;42.626;23.382;2023-04-03T00:06:18;1.87;;;1.67;;
10005;SDS011;5042;42.626;23.382;2023-04-03T00:08:47;1.50;;;1.40;;
10005;SDS011;5042;42.626;23.382;2023-04-03T00:11:14;2.40;;;1.40;;
10005;SDS011;5042;42.626;23.382;2023-04-03T00:13:41;2.20;;;2.00;;
10005;SDS011;5042;42.626;23.382;2023-04-03T00:16:09;1.60;;;1.50;;
10005;SDS011;5042;42.626;23.382;2023-04-03T00:18:36;1.67;;;1.57;;
10005;SDS011;5042;42.626;23.382;2023-04-03T00:21:03;6.57;;;1.93;;
10005;SDS011;5042;42.626;23.382;2023-04-03T00:23:31;2.23;;;1.83;;
10005;SDS011;5042;42.626;23.382;2023-04-03T00:26:00;1.77;;;1.63;;
10005;SDS011;5042;42.626;23.382;2023-04-03T00:28:27;1.50;;;1.40;;
10005;SDS011;5042;42.626;23.382;2023-04-03T00:30:53;1.63;;;1.53;;
10005;SDS011;5042;42.626;23.382;2023-04-03T00:33:20;1.70;;;1.60;;
10005;SDS011;5042;42.626;23.382;2023-04-03T00:35:47;3.00;;;1.90;;
10005;SDS011;5042;42.626;23.382;2023-04-03T00:38:14;1.70;;;1.60;;
10005;SDS011;5042;42.626;23.382;2023-04-03T00:40:42;2.77;;;1.70;;
10005;SDS011;5042;42.626;23.382;2023-04-03T00:43:12;3.57;;;2.10;;
10005;SDS011;5042;42.626;23.382;2023-04-03T00:45:41;1.90;;;1.80;;
10005;SDS011;5042;42.626;23.382;2023-04-03T00:48:10;1.90;;;1.80;;
10005;SDS011;5042;42.626;23.382;2023-04-03T00:50:40;1.90;;;1.80;;
10005;SDS011;5042;42.626;23.382;2023-04-03T00:53:10;2.03;;;1.83;;
10005;SDS011;5042;42.626;23.382;2023-04-03T00:55:38;2.10;;;1.90;;
10005;SDS011;5042;42.626;23.382;2023-04-03T00:58:06;2.00;;;1.77;;
10005;SDS011;5042;42.626;23.382;2023-04-03T01:00:35;1.93;;;1.70;;
10005;SDS011;5042;42.626;23.382;2023-04-03T01:03:03;1.90;;;1.80;;
10005;SDS011;5042;42.626;23.382;2023-04-03T01:05:30;1.77;;;1.67;;
10005;SDS011;5042;42.626;23.382;2023-04-03T01:07:57;2.03;;;1.93;;
10005;SDS011;5042;42.626;23.382;2023-04-03T01:10:24;2.03;;;1.90;;
10005;SDS011;5042;42.626;23.382;2023-04-03T01:12:51;2.90;;;1.83;;
10005;SDS011;5042;42.626;23.382;2023-04-03T01:15:22;1.90;;;1.80;;
10005;SDS011;5042;42.626;23.382;2023-04-03T01:17:53;2.40;;;2.03;;
10005;SDS011;5042;42.626;23.382;2023-04-03T01:23:25;2.00;;;1.90;;
10005;SDS011;5042;42.626;23.382;2023-04-03T01:26:04;1.80;;;1.63;;
10005;SDS011;5042;42.626;23.382;2023-04-03T01:28:32;1.80;;;1.63;;
10005;SDS011;5042;42.626;23.382;2023-04-03T01:31:02;1.67;;;1.57;;
10005;SDS011;5042;42.626;23.382;2023-04-03T01:33:40;1.57;;;1.47;;
10005;SDS011;5042;42.626;23.382;2023-04-03T01:36:07;2.00;;;1.90;;
10005;SDS011;5042;42.626;23.382;2023-04-03T01:38:34;3.23;;;2.10;;
10005;SDS011;5042;42.626;23.382;2023-04-03T01:41:01;1.53;;;1.50;;
10005;SDS011;5042;42.626;23.382;2023-04-03T01:43:28;1.60;;;1.50;;
10005;SDS011;5042;42.626;23.382;2023-04-03T01:45:54;2.10;;;1.90;;
10005;SDS011;5042;42.626;23.382;2023-04-03T01:48:21;1.47;;;1.37;;
10005;SDS011;5042;42.626;23.382;2023-04-03T01:50:49;1.60;;;1.50;;
10005;SDS011;5042;42.626;23.382;2023-04-03T01:53:16;2.30;;;1.80;;
10005;SDS011;5042;42.626;23.382;2023-04-03T01:55:43;1.87;;;1.67;;
10005;SDS011;5042;42.626;23.382;2023-04-03T01:58:10;2.30;;;1.60;;
10005;SDS011;5042;42.626;23.382;2023-04-03T02:00:37;2.60;;;1.90;;
10005;SDS011;5042;42.626;23.382;2023-04-03T02:03:04;2.13;;;1.67;;
10005;SDS011;5042;42.626;23.382;2023-04-03T02:05:31;1.80;;;1.70;;
10005;SDS011;5042;42.626;23.382;2023-04-03T02:08:00;1.43;;;1.33;;
10005;SDS011;5042;42.626;23.382;2023-04-03T02:10:26;1.93;;;1.70;;
10005;SDS011;5042;42.626;23.382;2023-04-03T02:12:53;1.90;;;1.70;;
10005;SDS011;5042;42.626;23.382;2023-04-03T02:15:20;1.50;;;1.40;;
10005;SDS011;5042;42.626;23.382;2023-04-03T02:17:47;1.87;;;1.70;;
10005;SDS011;5042;42.626;23.382;2023-04-03T02:20:14;1.87;;;1.77;;
10005;SDS011;5042;42.626;23.382;2023-04-03T02:22:41;2.03;;;1.67;;
10005;SDS011;5042;42.626;23.382;2023-04-03T02:25:09;2.10;;;1.90;;
10005;SDS011;5042;42.626;23.382;2023-04-03T02:27:36;1.60;;;1.50;;
10005;SDS011;5042;42.626;23.382;2023-04-03T02:30:04;1.77;;;1.67;;
10005;SDS011;5042;42.626;23.382;2023-04-03T02:32:31;1.30;;;1.30;;
10005;SDS011;5042;42.626;23.382;2023-04-03T02:34:58;1.70;;;1.60;;
10005;SDS011;5042;42.626;23.382;2023-04-03T02:37:25;1.70;;;1.50;;
10005;SDS011;5042;42.626;23.382;2023-04-03T02:39:52;1.87;;;1.77;;
10005;SDS011;5042;42.626;23.382;2023-04-03T02:42:20;1.87;;;1.73;;
10005;SDS011;5042;42.626;23.382;2023-04-03T02:44:47;2.13;;;1.93;;
10005;SDS011;5042;42.626;23.382;2023-04-03T02:47:13;2.07;;;1.93;;
10005;SDS011;5042;42.626;23.382;2023-04-03T02:49:40;2.00;;;1.90;;
10005;SDS011;5042;42.626;23.382;2023-04-03T02:52:08;2.57;;;2.27;;
10005;SDS011;5042;42.626;23.382;2023-04-03T02:54:35;2.30;;;2.20;;
10005;SDS011;5042;42.626;23.382;2023-04-03T02:57:02;2.50;;;2.23;;
10005;SDS011;5042;42.626;23.382;2023-04-03T02:59:30;2.33;;;2.13;;
10005;SDS011;5042;42.626;23.382;2023-04-03T03:01:57;2.17;;;2.00;;
10005;SDS011;5042;42.626;23.382;2023-04-03T03:04:24;2.20;;;2.00;;
10005;SDS011;5042;42.626;23.382;2023-04-03T03:06:50;2.03;;;1.93;;
10005;SDS011;5042;42.626;23.382;2023-04-03T03:09:17;2.63;;;2.00;;
10005;SDS011;5042;42.626;23.382;2023-04-03T03:11:44;2.07;;;1.93;;
10005;SDS011;5042;42.626;23.382;2023-04-03T03:14:11;2.43;;;2.00;;
10005;SDS011;5042;42.626;23.382;2023-04-03T03:16:39;2.93;;;2.20;;
10005;SDS011;5042;42.626;23.382;2023-04-03T03:19:06;2.17;;;1.87;;
10005;SDS011;5042;42.626;23.382;2023-04-03T03:21:32;2.80;;;2.10;;
10005;SDS011;5042;42.626;23.382;2023-04-03T03:23:59;2.27;;;2.17;;
10005;SDS011;5042;42.626;23.382;2023-04-03T03:26:26;2.30;;;2.10;;
10005;SDS011;5042;42.626;23.382;2023-04-03T03:28:53;2.43;;;2.20;;
10005;SDS011;5042;42.626;23.382;2023-04-03T03:31:20;2.20;;;2.03;;
10005;SDS011;5042;42.626;23.382;2023-04-03T03:33:48;2.20;;;1.90;;
10005;SDS011;5042;42.626;23.382;2023-04-03T03:36:14;2.10;;;2.00;;
10005;SDS011;5042;42.626;23.382;2023-04-03T03:38:41;1.97;;;1.87;;
10005;SDS011;5042;42.626;23.382;2023-04-03T03:41:08;2.40;;;2.10;;
10005;SDS011;5042;42.626;23.382;2023-04-03T03:43:35;2.20;;;1.90;;
10005;SDS011;5042;42.626;23.382;2023-04-03T03:46:01;2.73;;;1.90;;
10005;SDS011;5042;42.626;23.382;2023-04-03T03:48:28;2.20;;;2.00;;
10005;SDS011;5042;42.626;23.382;2023-04-03T03:50:56;3.30;;;2.10;;
10005;SDS011;5042;42.626;23.382;2023-04-03T03:53:23;2.10;;;1.93;;
10005;SDS011;5042;42.626;23.382;2023-04-03T03:55:50;2.53;;;2.17;;
10005;SDS011;5042;42.626;23.382;2023-04-03T03:58:17;5.33;;;2.67;;
10005;SDS011;5042;42.626;23.382;2023-04-03T04:00:44;2.13;;;1.93;;
10005;SDS011;5042;42.626;23.382;2023-04-03T04:03:11;1.97;;;1.87;;
10005;SDS011;5042;42.626;23.382;2023-04-03T04:05:37;3.50;;;2.10;;
10005;SDS011;5042;42.626;23.382;2023-04-03T04:08:07;2.47;;;2.10;;
10005;SDS011;5042;42.626;23.382;2023-04-03T04:10:33;2.40;;;2.20;;
10005;SDS011;5042;42.626;23.382;2023-04-03T04:13:00;3.00;;;2.67;;
10005;SDS011;5042;42.626;23.382;2023-04-03T04:15:27;2.80;;;2.60;;
10005;SDS011;5042;42.626;23.382;2023-04-03T04:17:54;2.37;;;2.17;;
10005;SDS011;5042;42.626;23.382;2023-04-03T04:20:22;2.87;;;2.47;;
10005;SDS011;5042;42.626;23.382;2023-04-03T04:22:49;2.60;;;2.40;;
10005;SDS011;5042;42.626;23.382;2023-04-03T04:25:17;2.80;;;2.47;;
10005;SDS011;5042;42.626;23.382;2023-04-03T04:27:44;2.37;;;2.17;;
10005;SDS011;5042;42.626;23.382;2023-04-03T04:30:11;3.53;;;2.20;;
10005;SDS011;5042;42.626;23.382;2023-04-03T04:32:39;2.23;;;2.03;;
10005;SDS011;5042;42.626;23.382;2023-04-03T04:35:06;2.30;;;2.10;;
10005;SDS011;5042;42.626;23.382;2023-04-03T04:37:33;2.60;;;2.40;;
10005;SDS011;5042;42.626;23.382;2023-04-03T04:40:00;2.57;;;2.13;;
10005;SDS011;5042;42.626;23.382;2023-04-03T04:42:28;2.77;;;2.30;;
10005;SDS011;5042;42.626;23.382;2023-04-03T04:44:55;2.60;;;2.40;;
10005;SDS011;5042;42.626;23.382;2023-04-03T04:47:22;3.93;;;2.93;;
10005;SDS011;5042;42.626;23.382;2023-04-03T04:49:49;4.07;;;2.73;;
10005;SDS011;5042;42.626;23.382;2023-04-03T04:52:15;4.87;;;2.73;;
10005;SDS011;5042;42.626;23.382;2023-04-03T04:54:42;5.70;;;2.83;;
10005;SDS011;5042;42.626;23.382;2023-04-03T04:57:09;6.27;;;2.87;;
10005;SDS011;5042;42.626;23.382;2023-04-03T04:59:37;3.37;;;3.03;;
10005;SDS011;5042;42.626;23.382;2023-04-03T05:02:04;3.97;;;2.17;;
10005;SDS011;5042;42.626;23.382;2023-04-03T05:04:31;2.50;;;2.30;;
10005;SDS011;5042;42.626;23.382;2023-04-03T05:06:58;3.30;;;2.40;;
10005;SDS011;5042;42.626;23.382;2023-04-03T05:09:25;2.73;;;2.37;;
10005;SDS011;5042;42.626;23.382;2023-04-03T05:11:52;4.27;;;3.03;;
10005;SDS011;5042;42.626;23.382;2023-04-03T05:14:19;3.13;;;2.87;;
10005;SDS011;5042;42.626;23.382;2023-04-03T05:16:47;5.23;;;2.90;;
10005;SDS011;5042;42.626;23.382;2023-04-03T05:19:17;2.77;;;2.57;;
10005;SDS011;5042;42.626;23.382;2023-04-03T05:21:44;3.37;;;2.80;;
10005;SDS011;5042;42.626;23.382;2023-04-03T05:24:11;3.33;;;2.53;;
10005;SDS011;5042;42.626;23.382;2023-04-03T05:26:38;3.63;;;2.90;;
10005;SDS011;5042;42.626;23.382;2023-04-03T05:29:05;2.57;;;2.37;;
10005;SDS011;5042;42.626;23.382;2023-04-03T05:31:32;4.10;;;2.97;;
10005;SDS011;5042;42.626;23.382;2023-04-03T05:34:00;3.23;;;2.90;;
10005;SDS011;5042;42.626;23.382;2023-04-03T05:36:27;7.50;;;3.30;;
10005;SDS011;5042;42.626;23.382;2023-04-03T05:38:54;4.40;;;3.67;;
10005;SDS011;5042;42.626;23.382;2023-04-03T05:41:22;5.13;;;3.57;;
10005;SDS011;5042;42.626;23.382;2023-04-03T05:43:48;5.37;;;2.93;;
10005;SDS011;5042;42.626;23.382;2023-04-03T05:46:16;4.87;;;3.70;;
10005;SDS011;5042;42.626;23.382;2023-04-03T05:48:44;6.13;;;3.43;;
10005;SDS011;5042;42.626;23.382;2023-04-03T05:51:14;4.53;;;3.53;;
10005;SDS011;5042;42.626;23.382;2023-04-03T05:53:42;8.17;;;3.60;;
10005;SDS011;5042;42.626;23.382;2023-04-03T05:56:10;3.80;;;3.50;;
10005;SDS011;5042;42.626;23.382;2023-04-03T05:58:37;4.27;;;3.60;;
10005;SDS011;5042;42.626;23.382;2023-04-03T06:01:04;3.77;;;3.33;;
10005;SDS011;5042;42.626;23.382;2023-04-03T06:03:31;4.80;;;3.30;;
10005;SDS011;5042;42.626;23.382;2023-04-03T06:05:58;5.20;;;3.57;;
10005;SDS011;5042;42.626;23.382;2023-04-03T06:08:26;5.47;;;3.67;;
10005;SDS011;5042;42.626;23.382;2023-04-03T06:10:54;5.27;;;4.40;;
10005;SDS011;5042;42.626;23.382;2023-04-03T06:13:21;7.13;;;4.17;;
10005;SDS011;5042;42.626;23.382;2023-04-03T06:15:48;7.17;;;3.90;;
10005;SDS011;5042;42.626;23.382;2023-04-03T06:18:15;4.40;;;3.70;;
10005;SDS011;5042;42.626;23.382;2023-04-03T06:20:42;5.23;;;4.20;;
10005;SDS011;5042;42.626;23.382;2023-04-03T06:23:09;4.50;;;3.83;;
10005;SDS011;5042;42.626;23.382;2023-04-03T06:25:38;7.73;;;4.33;;
10005;SDS011;5042;42.626;23.382;2023-04-03T06:28:05;6.70;;;4.37;;
10005;SDS011;5042;42.626;23.382;2023-04-03T06:30:34;7.20;;;4.50;;
10005;SDS011;5042;42.626;23.382;2023-04-03T06:33:01;6.63;;;4.30;;
10005;SDS011;5042;42.626;23.382;2023-04-03T06:35:28;6.50;;;3.97;;
10005;SDS011;5042;42.626;23.382;2023-04-03T06:37:55;5.10;;;3.30;;
10005;SDS011;5042;42.626;23.382;2023-04-03T06:40:23;4.17;;;3.37;;
10005;SDS011;5042;42.626;23.382;2023-04-03T06:42:55;3.50;;;3.20;;
10005;SDS011;5042;42.626;23.382;2023-04-03T06:45:21;5.70;;;3.10;;
10005;SDS011;5042;42.626;23.382;2023-04-03T06:47:50;13.43;;;6.87;;
10005;SDS011;5042;42.626;23.382;2023-04-03T06:50:17;6.70;;;4.67;;
10005;SDS011;5042;42.626;23.382;2023-04-03T06:52:44;2.50;;;2.30;;
10005;SDS011;5042;42.626;23.382;2023-04-03T06:55:10;2.87;;;2.67;;
10005;SDS011;5042;42.626;23.382;2023-04-03T06:57:37;2.40;;;2.30;;
10005;SDS011;5042;42.626;23.382;2023-04-03T07:00:06;3.13;;;2.60;;
10005;SDS011;5042;42.626;23.382;2023-04-03T07:02:34;5.87;;;3.17;;
10005;SDS011;5042;42.626;23.382;2023-04-03T07:05:01;3.17;;;2.60;;
10005;SDS011;5042;42.626;23.382;2023-04-03T07:07:28;4.93;;;3.07;;
10005;SDS011;5042;42.626;23.382;2023-04-03T07:09:54;7.93;;;3.97;;
10005;SDS011;5042;42.626;23.382;2023-04-03T07:12:21;4.90;;;3.80;;
10005;SDS011;5042;42.626;23.382;2023-04-03T07:14:48;4.80;;;3.77;;
10005;SDS011;5042;42.626;23.382;2023-04-03T07:17:16;6.27;;;4.37;;
10005;SDS011;5042;42.626;23.382;2023-04-03T07:19:43;5.53;;;4.40;;
10005;SDS011;5042;42.626;23.382;2023-04-03T07:22:09;7.23;;;4.93;;
10005;SDS011;5042;42.626;23.382;2023-04-03T07:24:37;4.83;;;4.17;;
10005;SDS011;5042;42.626;23.382;2023-04-03T07:27:04;5.90;;;4.77;;
10005;SDS011;5042;42.626;23.382;2023-04-03T07:29:31;6.27;;;5.27;;
10005;SDS011;5042;42.626;23.382;2023-04-03T07:31:57;8.40;;;4.87;;
10005;SDS011;5042;42.626;23.382;2023-04-03T07:34:26;6.53;;;5.43;;
10005;SDS011;5042;42.626;23.382;2023-04-03T07:36:53;5.63;;;5.03;;
10005;SDS011;5042;42.626;23.382;2023-04-03T07:39:20;7.50;;;5.73;;
10005;SDS011;5042;42.626;23.382;2023-04-03T07:41:47;6.50;;;5.50;;
10005;SDS011;5042;42.626;23.382;2023-04-03T07:44:13;6.90;;;5.57;;
10005;SDS011;5042;42.626;23.382;2023-04-03T07:46:40;7.37;;;5.30;;
10005;SDS011;5042;42.626;23.382;2023-04-03T07:49:07;7.43;;;5.37;;
10005;SDS011;5042;42.626;23.382;2023-04-03T07:51:35;7.40;;;5.10;;
10005;SDS011;5042;42.626;23.382;2023-04-03T07:54:02;7.13;;;5.67;;
10005;SDS011;5042;42.626;23.382;2023-04-03T07:56:30;7.57;;;6.20;;
10005;SDS011;5042;42.626;23.382;2023-04-03T07:58:56;8.33;;;6.63;;
10005;SDS011;5042;42.626;23.382;2023-04-03T08:01:23;10.97;;;7.57;;
10005;SDS011;5042;42.626;23.382;2023-04-03T08:03:50;10.43;;;6.97;;
10005;SDS011;5042;42.626;23.382;2023-04-03T08:06:17;8.07;;;7.20;;
10005;SDS011;5042;42.626;23.382;2023-04-03T08:08:45;11.03;;;7.97;;
10005;SDS011;5042;42.626;23.382;2023-04-03T08:11:12;9.60;;;7.80;;
10005;SDS011;5042;42.626;23.382;2023-04-03T08:13:39;8.60;;;7.27;;
10005;SDS011;5042;42.626;23.382;2023-04-03T08:16:07;9.23;;;7.10;;
10005;SDS011;5042;42.626;23.382;2023-04-03T08:18:35;12.87;;;7.33;;
10005;SDS011;5042;42.626;23.382;2023-04-03T08:21:04;14.30;;;8.03;;
10005;SDS011;5042;42.626;23.382;2023-04-03T08:23:32;10.00;;;8.40;;
10005;SDS011;5042;42.626;23.382;2023-04-03T08:26:00;14.57;;;9.80;;
10005;SDS011;5042;42.626;23.382;2023-04-03T08:28:32;14.30;;;9.20;;
10005;SDS011;5042;42.626;23.382;2023-04-03T08:31:02;9.93;;;8.53;;
10005;SDS011;5042;42.626;23.382;2023-04-03T08:33:29;15.00;;;9.50;;
10005;SDS011;5042;42.626;23.382;2023-04-03T08:35:56;14.13;;;9.20;;
10005;SDS011;5042;42.626;23.382;2023-04-03T08:38:23;9.50;;;7.30;;
10005;SDS011;5042;42.626;23.382;2023-04-03T08:41:00;14.20;;;7.37;;
10005;SDS011;5042;42.626;23.382;2023-04-03T08:43:33;13.17;;;7.33;;
10005;SDS011;5042;42.626;23.382;2023-04-03T08:46:05;12.17;;;7.17;;
10005;SDS011;5042;42.626;23.382;2023-04-03T08:48:36;12.83;;;7.77;;
10005;SDS011;5042;42.626;23.382;2023-04-03T08:51:08;10.23;;;7.80;;
10005;SDS011;5042;42.626;23.382;2023-04-03T08:53:40;9.37;;;7.93;;
10005;SDS011;5042;42.626;23.382;2023-04-03T08:56:12;11.20;;;7.77;;
10005;SDS011;5042;42.626;23.382;2023-04-03T08:58:45;8.60;;;6.57;;
10005;SDS011;5042;42.626;23.382;2023-04-03T09:01:17;10.73;;;6.93;;
10005;SDS011;5042;42.626;23.382;2023-04-03T09:03:46;7.20;;;6.17;;
10005;SDS011;5042;42.626;23.382;2023-04-03T09:06:13;8.37;;;6.47;;
10005;SDS011;5042;42.626;23.382;2023-04-03T09:08:43;11.03;;;7.30;;
10005;SDS011;5042;42.626;23.382;2023-04-03T09:11:16;8.63;;;6.60;;
10005;SDS011;5042;42.626;23.382;2023-04-03T09:13:52;8.90;;;6.70;;
10005;SDS011;5042;42.626;23.382;2023-04-03T09:16:28;6.80;;;6.10;;
10005;SDS011;5042;42.626;23.382;2023-04-03T09:19:06;8.83;;;6.10;;
10005;SDS011;5042;42.626;23.382;2023-04-03T09:21:41;7.80;;;4.90;;
10005;SDS011;5042;42.626;23.382;2023-04-03T09:24:09;6.90;;;4.90;;
10005;SDS011;5042;42.626;23.382;2023-04-03T09:26:41;6.20;;;4.87;;
10005;SDS011;5042;42.626;23.382;2023-04-03T09:29:14;5.13;;;3.90;;
10005;SDS011;5042;42.626;23.382;2023-04-03T09:31:44;4.73;;;3.80;;
10005;SDS011;5042;42.626;23.382;2023-04-03T09:34:15;7.00;;;4.43;;
10005;SDS011;5042;42.626;23.382;2023-04-03T09:36:48;5.53;;;4.20;;
10005;SDS011;5042;42.626;23.382;2023-04-03T09:39:17;6.63;;;5.00;;
10005;SDS011;5042;42.626;23.382;2023-04-03T09:41:56;4.90;;;4.40;;
10005;SDS011;5042;42.626;23.382;2023-04-03T09:44:26;2.87;;;2.20;;
10005;SDS011;5042;42.626;23.382;2023-04-03T09:46:54;5.23;;;3.20;;
10005;SDS011;5042;42.626;23.382;2023-04-03T09:49:21;5.00;;;4.20;;
10005;SDS011;5042;42.626;23.382;2023-04-03T09:51:47;5.47;;;3.90;;
10005;SDS011;5042;42.626;23.382;2023-04-03T09:54:25;5.43;;;3.80;;
10005;SDS011;5042;42.626;23.382;2023-04-03T09:57:08;6.13;;;3.70;;
10005;SDS011;5042;42.626;23.382;2023-04-03T09:59:42;4.77;;;3.80;;
10005;SDS011;5042;42.626;23.382;2023-04-03T10:05:04;2.70;;;2.50;;
10005;SDS011;5042;42.626;23.382;2023-04-03T10:07:52;2.70;;;2.23;;
10005;SDS011;5042;42.626;23.382;2023-04-03T10:10:34;3.20;;;2.30;;
10005;SDS011;5042;42.626;23.382;2023-04-03T10:13:06;3.57;;;2.90;;
10005;SDS011;5042;42.626;23.382;2023-04-03T10:15:38;5.60;;;2.87;;
10005;SDS011;5042;42.626;23.382;2023-04-03T10:18:14;2.43;;;2.23;;
10005;SDS011;5042;42.626;23.382;2023-04-03T10:20:54;4.00;;;2.90;;
10005;SDS011;5042;42.626;23.382;2023-04-03T10:23:30;2.57;;;2.37;;
10005;SDS011;5042;42.626;23.382;2023-04-03T10:26:06;2.67;;;2.30;;
10005;SDS011;5042;42.626;23.382;2023-04-03T10:28:45;2.60;;;2.40;;
10005;SDS011;5042;42.626;23.382;2023-04-03T10:31:21;3.63;;;2.00;;
10005;SDS011;5042;42.626;23.382;2023-04-03T10:33:56;2.47;;;2.27;;
10005;SDS011;5042;42.626;23.382;2023-04-03T10:36:34;2.40;;;2.20;;
10005;SDS011;5042;42.626;23.382;2023-04-03T10:39:08;2.57;;;2.37;;
10005;SDS011;5042;42.626;23.382;2023-04-03T10:41:55;2.67;;;2.47;;
10005;SDS011;5042;42.626;23.382;2023-04-03T10:44:32;2.73;;;2.10;;
10005;SDS011;5042;42.626;23.382;2023-04-03T10:47:08;2.50;;;2.30;;
10005;SDS011;5042;42.626;23.382;2023-04-03T10:49:45;2.53;;;2.20;;
10005;SDS011;5042;42.626;23.382;2023-04-03T10:52:22;2.83;;;2.10;;
10005;SDS011;5042;42.626;23.382;2023-04-03T10:54:58;1.80;;;1.70;;
10005;SDS011;5042;42.626;23.382;2023-04-03T10:57:33;2.13;;;1.90;;
10005;SDS011;5042;42.626;23.382;2023-04-03T11:00:03;2.87;;;2.00;;
10005;SDS011;5042;42.626;23.382;2023-04-03T11:02:35;2.40;;;2.20;;
10005;SDS011;5042;42.626;23.382;2023-04-03T11:05:08;2.30;;;2.10;;
10005;SDS011;5042;42.626;23.382;2023-04-03T11:07:45;2.80;;;2.60;;
10005;SDS011;5042;42.626;23.382;2023-04-03T11:10:17;2.40;;;2.20;;
10005;SDS011;5042;42.626;23.382;2023-04-03T11:12:51;3.93;;;2.80;;
10005;SDS011;5042;42.626;23.382;2023-04-03T11:15:22;5.07;;;2.77;;
10005;SDS011;5042;42.626;23.382;2023-04-03T11:17:52;3.77;;;2.80;;
10005;SDS011;5042;42.626;23.382;2023-04-03T11:20:23;2.80;;;2.53;;
10005;SDS011;5042;42.626;23.382;2023-04-03T11:22:53;2.60;;;2.40;;
10005;SDS011;5042;42.626;23.382;2023-04-03T11:25:25;4.00;;;3.13;;
10005;SDS011;5042;42.626;23.382;2023-04-03T11:27:56;3.27;;;2.23;;
10005;SDS011;5042;42.626;23.382;2023-04-03T11:30:27;3.60;;;3.17;;
10005;SDS011;5042;42.626;23.382;2023-04-03T11:33:01;4.17;;;3.53;;
10005;SDS011;5042;42.626;23.382;2023-04-03T11:35:36;5.27;;;3.57;;
10005;SDS011;5042;42.626;23.382;2023-04-03T11:38:10;3.90;;;3.60;;
10005;SDS011;5042;42.626;23.382;2023-04-03T11:40:45;3.33;;;3.00;;
10005;SDS011;5042;42.626;23.382;2023-04-03T11:43:20;3.70;;;3.40;;
10005;SDS011;5042;42.626;23.382;2023-04-03T11:45:52;3.53;;;3.23;;
10005;SDS011;5042;42.626;23.382;2023-04-03T12:03:31;3.20;;;2.90;;
10005;SDS011;5042;42.626;23.382;2023-04-03T12:09:22;3.77;;;3.20;;
10005;SDS011;5042;42.626;23.382;2023-04-03T12:11:51;3.60;;;3.30;;
10005;SDS011;5042;42.626;23.382;2023-04-03T12:14:19;4.10;;;3.43;;
10005;SDS011;5042;42.626;23.382;2023-04-03T12:16:49;3.40;;;3.07;;
10005;SDS011;5042;42.626;23.382;2023-04-03T12:19:34;3.27;;;2.97;;
10005;SDS011;5042;42.626;23.382;2023-04-03T12:22:15;3.70;;;3.40;;
10005;SDS011;5042;42.626;23.382;2023-04-03T12:24:45;4.20;;;3.80;;
10005;SDS011;5042;42.626;23.382;2023-04-03T12:27:20;4.70;;;3.63;;
10005;SDS011;5042;42.626;23.382;2023-04-03T12:29:51;4.57;;;3.73;;
10005;SDS011;5042;42.626;23.382;2023-04-03T12:32:26;3.77;;;3.23;;
10005;SDS011;5042;42.626;23.382;2023-04-03T12:35:16;4.87;;;4.27;;
10005;SDS011;5042;42.626;23.382;2023-04-03T12:37:51;4.40;;;3.83;;
10005;SDS011;5042;42.626;23.382;2023-04-03T12:40:34;6.03;;;3.80;;
10005;SDS011;5042;42.626;23.382;2023-04-03T12:43:20;5.50;;;4.33;;
10005;SDS011;5042;42.626;23.382;2023-04-03T12:45:58;5.23;;;4.73;;
10005;SDS011;5042;42.626;23.382;2023-04-03T12:48:29;4.37;;;3.97;;
10005;SDS011;5042;42.626;23.382;2023-04-03T12:50:59;5.83;;;4.47;;
10005;SDS011;5042;42.626;23.382;2023-04-03T12:53:28;5.77;;;4.90;;
10005;SDS011;5042;42.626;23.382;2023-04-03T12:56:19;6.77;;;5.10;;
10005;SDS011;5042;42.626;23.382;2023-04-03T12:58:48;5.47;;;4.67;;
10005;SDS011;5042;42.626;23.382;2023-04-03T13:01:16;5.70;;;4.50;;
10005;SDS011;5042;42.626;23.382;2023-04-03T13:03:45;6.63;;;4.77;;
10005;SDS011;5042;42.626;23.382;2023-04-03T13:06:17;5.23;;;4.60;;
10005;SDS011;5042;42.626;23.382;2023-04-03T13:08:49;6.07;;;4.63;;
10005;SDS011;5042;42.626;23.382;2023-04-03T13:11:17;19.70;;;12.83;;
10005;SDS011;5042;42.626;23.382;2023-04-03T13:13:56;6.13;;;4.97;;
10005;SDS011;5042;42.626;23.382;2023-04-03T13:16:24;7.60;;;5.90;;
10005;SDS011;5042;42.626;23.382;2023-04-03T13:18:52;4.80;;;4.40;;
10005;SDS011;5042;42.626;23.382;2023-04-03T13:21:22;5.70;;;5.10;;
10005;SDS011;5042;42.626;23.382;2023-04-03T13:23:52;6.27;;;5.00;;
10005;SDS011;5042;42.626;23.382;2023-04-03T13:26:22;6.50;;;5.00;;
10005;SDS011;5042;42.626;23.382;2023-04-03T13:28:53;4.47;;;4.07;;
10005;SDS011;5042;42.626;23.382;2023-04-03T13:31:25;5.33;;;4.73;;
10005;SDS011;5042;42.626;23.382;2023-04-03T13:33:55;5.80;;;4.97;;
10005;SDS011;5042;42.626;23.382;2023-04-03T13:36:26;5.53;;;4.97;;
10005;SDS011;5042;42.626;23.382;2023-04-03T13:38:59;5.27;;;4.53;;
10005;SDS011;5042;42.626;23.382;2023-04-03T13:41:29;5.10;;;4.60;;
10005;SDS011;5042;42.626;23.382;2023-04-03T13:43:57;5.50;;;5.00;;
10005;SDS011;5042;42.626;23.382;2023-04-03T13:46:42;7.03;;;5.30;;
10005;SDS011;5042;42.626;23.382;2023-04-03T13:49:17;5.60;;;5.10;;
10005;SDS011;5042;42.626;23.382;2023-04-03T13:51:47;6.00;;;4.80;;
10005;SDS011;5042;42.626;23.382;2023-04-03T13:54:18;5.70;;;4.30;;
10005;SDS011;5042;42.626;23.382;2023-04-03T13:56:52;4.37;;;4.00;;
10005;SDS011;5042;42.626;23.382;2023-04-03T13:59:21;4.80;;;4.30;;
10005;SDS011;5042;42.626;23.382;2023-04-03T14:01:51;5.80;;;5.20;;
10005;SDS011;5042;42.626;23.382;2023-04-03T14:04:21;8.10;;;5.30;;
10005;SDS011;5042;42.626;23.382;2023-04-03T14:06:52;5.60;;;5.10;;
10005;SDS011;5042;42.626;23.382;2023-04-03T14:09:20;8.60;;;6.60;;
10005;SDS011;5042;42.626;23.382;2023-04-03T14:11:48;7.97;;;6.50;;
10005;SDS011;5042;42.626;23.382;2023-04-03T14:14:18;5.63;;;5.13;;
10005;SDS011;5042;42.626;23.382;2023-04-03T14:16:51;6.03;;;3.97;;
10005;SDS011;5042;42.626;23.382;2023-04-03T14:19:21;6.10;;;4.23;;
10005;SDS011;5042;42.626;23.382;2023-04-03T14:21:50;4.10;;;3.77;;
10005;SDS011;5042;42.626;23.382;2023-04-03T14:24:19;5.00;;;4.13;;
10005;SDS011;5042;42.626;23.382;2023-04-03T14:26:47;4.10;;;3.70;;
10005;SDS011;5042;42.626;23.382;2023-04-03T14:29:14;4.10;;;3.70;;
10005;SDS011;5042;42.626;23.382;2023-04-03T14:31:42;4.27;;;3.87;;
10005;SDS011;5042;42.626;23.382;2023-04-03T14:34:10;4.47;;;4.07;;
10005;SDS011;5042;42.626;23.382;2023-04-03T14:36:38;4.20;;;3.80;;
10005;SDS011;5042;42.626;23.382;2023-04-03T14:39:07;4.93;;;3.30;;
10005;SDS011;5042;42.626;23.382;2023-04-03T14:41:37;3.50;;;3.20;;
10005;SDS011;5042;42.626;23.382;2023-04-03T14:44:04;4.00;;;3.70;;
10005;SDS011;5042;42.626;23.382;2023-04-03T14:46:32;4.27;;;3.87;;
10005;SDS011;5042;42.626;23.382;2023-04-03T14:49:01;4.30;;;3.90;;
10005;SDS011;5042;42.626;23.382;2023-04-03T14:51:28;3.90;;;3.13;;
10005;SDS011;5042;42.626;23.382;2023-04-03T14:53:55;3.20;;;3.00;;
10005;SDS011;5042;42.626;23.382;2023-04-03T14:56:25;3.03;;;2.83;;
10005;SDS011;5042;42.626;23.382;2023-04-03T14:58:54;3.20;;;3.00;;
10005;SDS011;5042;42.626;23.382;2023-04-03T15:01:22;4.17;;;3.30;;
10005;SDS011;5042;42.626;23.382;2023-04-03T15:03:49;5.10;;;3.57;;
10005;SDS011;5042;42.626;23.382;2023-04-03T15:06:16;3.50;;;3.20;;
10005;SDS011;5042;42.626;23.382;2023-04-03T15:08:43;3.60;;;3.30;;
10005;SDS011;5042;42.626;23.382;2023-04-03T15:11:12;5.03;;;3.87;;
10005;SDS011;5042;42.626;23.382;2023-04-03T15:13:42;6.20;;;4.00;;
10005;SDS011;5042;42.626;23.382;2023-04-03T15:16:13;6.33;;;4.73;;
10005;SDS011;5042;42.626;23.382;2023-04-03T15:18:42;8.97;;;4.57;;
10005;SDS011;5042;42.626;23.382;2023-04-03T15:21:10;5.63;;;4.20;;
10005;SDS011;5042;42.626;23.382;2023-04-03T15:23:37;4.87;;;4.40;;
10005;SDS011;5042;42.626;23.382;2023-04-03T15:26:04;6.43;;;4.47;;